»·PEaware :: DCM205 KSBA-KLAS

DCM205 :: KSBA-KLAS

FLIGHT INFORMATION

Flight Status: Arrived
Operator: DotCom
More flights by this operator :: More flights under this callsign
Pilot: Chris S. (2433)
Aircraft: AIRBUS A320
(A320)
More flights by this aircraft type
Origin: KSBA Santa Barbara Mun
United States
Destination: KLAS McCarran Intl
United States
More flights between these airports :: More routes between these airports
Route: MISHN3 NNAVY MISEN KEPEC6
File this flight plan on PilotEdge
Remarks:
Altitude:
(Current/Filed)
35,000ft
Speed:
(Current/Filed)
420kts
Departed: 23-Mar-20 08:34 AM
Arrived: 23-Mar-20 09:22 AM
Distance/Time
Traveled:
249nm/0:48
Distance/Time
To Go:
Arrived

Flight Plot

Page will automatically refresh every two minutes.

Flight plan parsing failed; only flown route is shown


Map Options




Map Legend


Flown Route
Filed Route
Departure Airport
Arrival Airport
Navaid (VOR, NDB)
Fix

Horizontal Profiles

Position Reports

Time Latitude Longitude Heading Altitude Ground
Speed
23-Mar-20 08:02 34.424562 -119.837047 124 24ft 0kts
23-Mar-20 08:03 34.424562 -119.837047 124 24ft 0kts
23-Mar-20 08:04 34.424562 -119.837047 124 24ft 0kts
23-Mar-20 08:05 34.424562 -119.837047 124 24ft 0kts
23-Mar-20 08:06 34.424562 -119.837047 124 24ft 0kts
23-Mar-20 08:07 34.424562 -119.837047 124 24ft 0kts
23-Mar-20 08:08 34.424562 -119.837047 124 24ft 0kts
23-Mar-20 08:09 34.424562 -119.837047 124 24ft 0kts
23-Mar-20 08:10 34.424562 -119.837047 124 24ft 0kts
23-Mar-20 08:11 34.424562 -119.837047 124 24ft 0kts
23-Mar-20 08:12 34.424562 -119.837047 124 24ft 0kts
23-Mar-20 08:13 34.424562 -119.837047 124 24ft 0kts
23-Mar-20 08:14 34.424562 -119.837047 124 24ft 0kts
23-Mar-20 08:16 34.424562 -119.837047 124 24ft 0kts
23-Mar-20 08:17 34.424562 -119.837047 124 24ft 0kts
23-Mar-20 08:18 34.424562 -119.837047 124 24ft 0kts
23-Mar-20 08:19 34.424562 -119.837047 124 24ft 0kts
23-Mar-20 08:20 34.424562 -119.837047 124 24ft 0kts
23-Mar-20 08:21 34.424562 -119.837047 124 24ft 0kts
23-Mar-20 08:22 34.424562 -119.837047 124 24ft 0kts
23-Mar-20 08:23 34.424562 -119.837047 124 24ft 0kts
23-Mar-20 08:24 34.424562 -119.837047 124 24ft 0kts
23-Mar-20 08:25 34.424562 -119.837046 124 24ft 0kts
23-Mar-20 08:26 34.424561 -119.837046 124 24ft 0kts
23-Mar-20 08:27 34.424513 -119.836960 124 24ft 0kts
23-Mar-20 08:28 34.424580 -119.837122 324 24ft 3kts
23-Mar-20 08:29 34.425895 -119.838104 343 24ft 11kts
23-Mar-20 08:30 34.426751 -119.834963 91 24ft 13kts
23-Mar-20 08:31 34.426988 -119.834425 358 24ft 0kts
23-Mar-20 08:32 34.427864 -119.834956 282 24ft 11kts
23-Mar-20 08:33 34.427133 -119.864883 267 471ft 166kts
23-Mar-20 08:34 34.418599 -119.923742 226 2545ft 214kts
23-Mar-20 08:35 34.364874 -119.913018 117 5128ft 251kts
23-Mar-20 08:36 34.327576 -119.832798 122 7604ft 289kts
23-Mar-20 08:37 34.285181 -119.747011 121 10411ft 309kts
23-Mar-20 08:38 34.236246 -119.649395 121 12008ft 367kts
23-Mar-20 08:39 34.193243 -119.534986 88 14371ft 384kts
23-Mar-20 08:40 34.201132 -119.404200 85 16578ft 399kts
23-Mar-20 08:41 34.205565 -119.267640 86 18586ft 414kts
23-Mar-20 08:42 34.211197 -119.126143 86 20339ft 430kts
23-Mar-20 08:43 34.234661 -118.982272 73 21862ft 445kts
23-Mar-20 08:44 34.264438 -118.834082 76 23197ft 463kts
23-Mar-20 08:46 34.295146 -118.679569 76 24332ft 482kts
23-Mar-20 08:47 34.326756 -118.518722 77 25327ft 502kts
23-Mar-20 08:48 34.359473 -118.351115 78 26280ft 520kts
23-Mar-20 08:49 34.392887 -118.178404 78 27217ft 535kts
23-Mar-20 08:50 34.431087 -118.001560 65 28122ft 549kts
23-Mar-20 08:51 34.498150 -117.833095 62 28978ft 561kts
23-Mar-20 08:52 34.564056 -117.660056 63 29889ft 570kts
23-Mar-20 08:53 34.631672 -117.486247 64 31210ft 565kts
23-Mar-20 08:54 34.697553 -117.313680 64 32421ft 561kts
23-Mar-20 08:55 34.762235 -117.144144 64 34225ft 538kts
23-Mar-20 08:56 34.823742 -116.982024 64 35118ft 525kts
23-Mar-20 08:57 34.885732 -116.817802 65 35119ft 540kts
23-Mar-20 08:58 34.957979 -116.658046 52 34849ft 532kts
23-Mar-20 08:59 35.042842 -116.510602 53 32514ft 524kts
23-Mar-20 09:00 35.127795 -116.369371 42 29345ft 519kts
23-Mar-20 09:01 35.232101 -116.242726 43 24995ft 522kts
23-Mar-20 09:02 35.328570 -116.119545 43 21637ft 496kts
23-Mar-20 09:02 35.409120 -116.018763 45 17991ft 478kts
23-Mar-20 09:04 35.509520 -115.891371 45 15750ft 409kts
23-Mar-20 09:05 35.582956 -115.797960 46 14779ft 357kts
23-Mar-20 09:06 35.650306 -115.712238 46 13490ft 346kts
23-Mar-20 09:07 35.715647 -115.628764 46 13015ft 333kts
23-Mar-20 09:07 35.776317 -115.573051 6 13011ft 328kts
23-Mar-20 09:09 35.881873 -115.569083 358 13026ft 325kts
23-Mar-20 09:10 35.970104 -115.549743 38 13011ft 333kts
23-Mar-20 09:10 36.003037 -115.466450 75 11598ft 335kts
23-Mar-20 09:11 36.031348 -115.356677 75 9923ft 322kts
23-Mar-20 09:12 36.058445 -115.258381 74 8655ft 288kts
23-Mar-20 09:13 36.082945 -115.166660 74 7106ft 274kts
23-Mar-20 09:14 36.123200 -115.090089 41 6620ft 265kts
23-Mar-20 09:15 36.182955 -115.041449 32 5296ft 244kts
23-Mar-20 09:16 36.231950 -115.063102 273 4182ft 195kts
23-Mar-20 09:17 36.200749 -115.098236 202 3913ft 149kts
23-Mar-20 09:18 36.166345 -115.118314 205 3834ft 133kts
23-Mar-20 09:19 36.131291 -115.138211 205 3087ft 136kts
23-Mar-20 09:20 36.096869 -115.157838 208 2214ft 137kts
23-Mar-20 09:21 36.084253 -115.165631 229 2195ft 23kts
23-Mar-20 09:22 36.082110 -115.168739 204 2195ft 7kts
23-Mar-20 09:23 36.081063 -115.171886 321 2195ft 11kts
23-Mar-20 09:24 36.081597 -115.171231 90 2195ft 0kts
23-Mar-20 09:25 36.081597 -115.171231 90 2195ft 0kts
23-Mar-20 09:26 36.081597 -115.171231 90 2195ft 0kts
23-Mar-20 09:27 36.081597 -115.171231 90 2195ft 0kts
23-Mar-20 09:28 36.081597 -115.171231 90 2195ft 0kts
23-Mar-20 09:29 36.081597 -115.171231 90 2195ft 0kts
23-Mar-20 09:30 36.081597 -115.171231 90 2195ft 0kts
23-Mar-20 09:31 36.081597 -115.171231 90 2195ft 0kts
23-Mar-20 09:32 36.081597 -115.171231 90 2195ft 0kts
23-Mar-20 09:33 36.081597 -115.171231 90 2195ft 0kts
23-Mar-20 09:34 36.081597 -115.171231 90 2195ft 0kts
23-Mar-20 09:35 36.081597 -115.171231 90 2195ft 0kts

Navigation Log

Ident Type
Flight plan parsing failed, navigation log unavailable